Time;durP1;ratioP1;P1;durP2;ratioP2;P2;SDS_P1;SDS_P2;PMS_P1;PMS_P2;Temp;Humidity;BMP_temperature;BMP_pressure;BME280_temperature;BME280_humidity;BME280_pressure;Samples;Min_cycle;Max_cycle;Signal;HPM_P1;HPM_P2
2021/08/14 00:02:11;;;;;;;15.27;7.47;;;;;;;21.17;97.96;97289.19;5033703;28;20131;-65
2021/08/14 00:04:36;;;;;;;12.07;7.40;;;;;;;21.23;97.70;97291.47;5021050;28;20513;-65
2021/08/14 00:07:02;;;;;;;16.65;7.80;;;;;;;21.25;97.23;97291.84;5036401;28;20044;-64
2021/08/14 00:09:28;;;;;;;19.25;8.60;;;;;;;21.24;97.62;97291.06;5036273;28;20090;-66
2021/08/14 00:11:53;;;;;;;16.35;7.88;;;;;;;21.23;97.58;97286.72;5039130;28;20041;-65
2021/08/14 00:14:19;;;;;;;17.92;7.40;;;;;;;21.15;97.47;97283.25;5033162;28;20398;-66
2021/08/14 00:16:44;;;;;;;16.83;8.13;;;;;;;21.08;97.71;97280.56;5036155;28;20144;-67
2021/08/14 00:19:10;;;;;;;21.38;8.57;;;;;;;21.07;97.42;97281.81;5034173;28;20044;-66
2021/08/14 00:21:35;;;;;;;17.25;8.05;;;;;;;21.06;97.95;97277.44;5038160;28;20055;-65
2021/08/14 00:24:01;;;;;;;19.30;8.70;;;;;;;21.00;98.34;97282.69;5038919;28;20044;-66
2021/08/14 00:26:26;;;;;;;21.85;8.75;;;;;;;20.97;98.63;97271.63;5032811;28;20053;-66
2021/08/14 00:28:52;;;;;;;14.88;7.95;;;;;;;20.94;99.07;97278.00;5039261;28;20107;-65
2021/08/14 00:31:18;;;;;;;13.90;7.40;;;;;;;20.94;98.85;97272.44;5034927;28;20044;-64
2021/08/14 00:33:44;;;;;;;14.15;8.13;;;;;;;20.95;98.57;97277.59;5036532;28;20043;-66
2021/08/14 00:36:09;;;;;;;15.88;7.82;;;;;;;21.02;97.80;97275.94;5034520;28;20108;-64
2021/08/14 00:38:35;;;;;;;13.98;7.53;;;;;;;21.05;96.16;97289.00;5046528;28;20045;-65
2021/08/14 00:41:00;;;;;;;19.83;8.00;;;;;;;21.06;96.36;97285.78;5044072;28;20533;-65
2021/08/14 00:43:26;;;;;;;18.08;7.90;;;;;;;20.99;94.89;97286.72;5037881;28;20355;-64
2021/08/14 00:45:51;;;;;;;20.25;7.28;;;;;;;21.00;95.34;97282.69;5041546;28;20063;-66
2021/08/14 00:48:17;;;;;;;18.75;8.50;;;;;;;20.99;94.35;97278.34;5028334;28;20049;-65
2021/08/14 00:50:43;;;;;;;19.13;8.10;;;;;;;20.96;94.05;97275.63;5034058;28;20052;-66
2021/08/14 00:53:08;;;;;;;21.73;9.00;;;;;;;20.89;92.90;97273.72;5026247;28;20037;-66
2021/08/14 00:55:34;;;;;;;18.35;8.80;;;;;;;20.79;93.59;97281.03;5041962;28;20045;-65
2021/08/14 00:57:59;;;;;;;18.63;8.18;;;;;;;20.72;93.89;97277.56;5033837;28;20049;-66
2021/08/14 01:00:25;;;;;;;19.75;8.65;;;;;;;20.68;93.77;97272.03;5029473;28;20497;-66
2021/08/14 01:02:55;;;;;;;17.30;8.70;;;;;;;20.67;93.28;97275.25;5024874;28;20056;-65
2021/08/14 01:05:20;;;;;;;17.05;8.55;;;;;;;20.62;93.44;97271.72;5034308;28;20048;-66
2021/08/14 01:07:49;;;;;;;17.65;8.25;;;;;;;20.59;93.30;97266.97;5035675;28;20037;-65
2021/08/14 01:10:14;;;;;;;16.77;8.48;;;;;;;20.59;93.16;97272.53;5034633;28;20090;-64
2021/08/14 01:12:40;;;;;;;14.20;8.38;;;;;;;20.58;93.25;97268.19;5030777;28;20122;-67
2021/08/14 01:15:06;;;;;;;16.17;8.40;;;;;;;20.61;92.99;97274.94;5034471;28;20041;-67
2021/08/14 01:17:33;;;;;;;18.63;8.43;;;;;;;20.70;93.36;97272.41;5041458;28;20045;-66
2021/08/14 01:19:59;;;;;;;15.00;7.70;;;;;;;20.79;92.59;97269.09;5041853;28;20064;-67
2021/08/14 01:22:24;;;;;;;16.30;7.50;;;;;;;20.90;92.91;97264.16;5037721;28;20053;-67
2021/08/14 01:24:49;;;;;;;13.60;7.55;;;;;;;20.98;92.79;97271.19;5042401;28;20037;-66
2021/08/14 01:27:15;;;;;;;13.18;7.78;;;;;;;21.07;92.98;97262.31;5014424;28;20044;-67
2021/08/14 01:29:41;;;;;;;13.73;8.45;;;;;;;21.19;92.44;97264.50;5040741;28;20041;-66
2021/08/14 01:32:07;;;;;;;16.98;7.55;;;;;;;21.27;91.92;97261.59;5025735;28;20656;-67
2021/08/14 01:34:34;;;;;;;15.07;7.38;;;;;;;21.21;91.36;97266.84;5038215;28;20041;-65
2021/08/14 01:37:00;;;;;;;18.55;7.63;;;;;;;21.10;92.37;97260.66;5042483;28;20084;-66
2021/08/14 01:39:26;;;;;;;14.07;7.53;;;;;;;20.96;93.20;97261.69;5026784;28;20068;-66
2021/08/14 01:41:56;;;;;;;17.05;7.38;;;;;;;20.87;93.92;97265.00;5033208;28;20143;-67
2021/08/14 01:44:21;;;;;;;11.82;7.18;;;;;;;20.82;94.57;97265.50;5033395;28;20062;-67
2021/08/14 01:46:47;;;;;;;14.50;7.00;;;;;;;20.88;95.31;97266.56;5038008;28;20041;-66
2021/08/14 01:49:12;;;;;;;19.52;8.57;;;;;;;20.95;94.69;97260.88;5027219;28;20127;-68
2021/08/14 01:51:38;;;;;;;15.38;7.57;;;;;;;21.07;93.83;97255.94;5040731;28;20390;-68
2021/08/14 01:54:04;;;;;;;15.60;7.25;;;;;;;21.07;93.94;97258.72;5038231;28;20127;-66
2021/08/14 01:56:31;;;;;;;13.63;7.35;;;;;;;21.00;94.15;97251.28;5041832;28;20040;-66
2021/08/14 01:58:57;;;;;;;18.45;7.20;;;;;;;20.91;94.12;97251.03;5042112;28;20064;-66
2021/08/14 02:01:23;;;;;;;16.77;7.55;;;;;;;20.76;94.85;97247.66;5034973;28;20045;-66
2021/08/14 02:03:49;;;;;;;14.85;8.02;;;;;;;20.67;95.78;97250.19;5041332;28;20037;-66
2021/08/14 02:06:20;;;;;;;14.02;7.95;;;;;;;20.55;96.44;97246.75;5028958;28;20196;-66
2021/08/14 02:08:46;;;;;;;15.73;7.93;;;;;;;20.53;97.38;97251.97;5041488;28;20068;-67
2021/08/14 02:11:17;;;;;;;16.50;8.02;;;;;;;20.54;97.42;97244.41;5026352;28;20227;-66
2021/08/14 02:13:43;;;;;;;17.48;8.80;;;;;;;20.53;97.00;97248.41;5044341;28;20632;-66
2021/08/14 02:16:10;;;;;;;11.52;8.13;;;;;;;20.59;96.80;97241.16;5033764;28;20098;-66
2021/08/14 02:18:35;;;;;;;24.27;8.45;;;;;;;20.59;96.45;97243.94;5034017;28;20370;-67
2021/08/14 02:21:01;;;;;;;15.18;7.80;;;;;;;20.56;96.42;97242.78;5040600;28;20037;-67
2021/08/14 02:23:27;;;;;;;11.90;7.10;;;;;;;20.55;96.66;97243.19;5017077;28;20106;-67
2021/08/14 02:25:52;;;;;;;15.52;7.93;;;;;;;20.51;96.38;97239.66;5033283;28;20044;-67
2021/08/14 02:28:17;;;;;;;12.30;7.40;;;;;;;20.50;96.44;97240.88;5030538;28;20036;-67
2021/08/14 02:30:43;;;;;;;15.18;7.47;;;;;;;20.47;96.78;97242.50;5034900;28;20478;-67
2021/08/14 02:33:09;;;;;;;14.55;7.63;;;;;;;20.43;96.04;97234.19;5033210;28;20044;-65
2021/08/14 02:35:34;;;;;;;14.38;7.50;;;;;;;20.42;96.00;97238.22;5031937;28;20049;-66
2021/08/14 02:38:00;;;;;;;14.25;8.18;;;;;;;20.43;95.54;97242.53;5037402;28;20124;-66
2021/08/14 02:40:25;;;;;;;15.10;7.95;;;;;;;20.47;95.66;97245.28;5026967;28;20045;-66
2021/08/14 02:42:51;;;;;;;16.25;7.32;;;;;;;20.47;95.70;97245.28;5033582;28;20060;-67
2021/08/14 02:45:16;;;;;;;14.27;8.18;;;;;;;20.48;94.76;97238.53;5033912;28;20029;-66
2021/08/14 02:47:42;;;;;;;14.15;7.60;;;;;;;20.47;95.52;97241.72;5032647;28;20089;-66
2021/08/14 02:50:08;;;;;;;15.68;7.95;;;;;;;20.38;96.49;97243.03;5034293;28;20048;-66
2021/08/14 02:52:35;;;;;;;16.83;8.32;;;;;;;20.25;98.26;97242.00;5041822;28;20041;-66
2021/08/14 02:55:00;;;;;;;14.30;7.93;;;;;;;20.30;97.89;97238.00;5040375;28;20040;-67
2021/08/14 02:57:26;;;;;;;13.30;7.57;;;;;;;20.34;97.77;97235.94;5031868;28;20386;-66
2021/08/14 02:59:51;;;;;;;13.52;6.38;;;;;;;20.32;97.41;97232.78;5039882;28;20394;-66
2021/08/14 03:02:16;;;;;;;14.52;7.97;;;;;;;20.22;97.67;97232.53;5035682;28;20041;-65
2021/08/14 03:04:42;;;;;;;25.05;8.32;;;;;;;20.02;99.17;97226.03;5037759;28;20773;-65
2021/08/14 03:07:07;;;;;;;18.17;7.75;;;;;;;19.97;99.59;97227.28;5036481;28;20044;-65
2021/08/14 03:09:33;;;;;;;18.05;7.68;;;;;;;19.84;100.00;97224.28;5042414;28;20040;-66
2021/08/14 03:11:58;;;;;;;21.85;7.65;;;;;;;19.81;100.00;97232.66;5050166;28;20036;-65
2021/08/14 03:14:23;;;;;;;20.48;7.95;;;;;;;19.77;100.00;97235.47;5042539;28;20509;-67
2021/08/14 03:16:49;;;;;;;15.48;7.43;;;;;;;19.84;100.00;97229.81;5029067;28;20188;-66
2021/08/14 03:19:14;;;;;;;15.80;7.95;;;;;;;19.86;100.00;97235.75;5031700;28;20087;-65
2021/08/14 03:21:40;;;;;;;18.90;7.65;;;;;;;19.96;100.00;97231.25;5039326;28;20078;-67
2021/08/14 03:24:05;;;;;;;15.40;7.57;;;;;;;20.03;99.66;97236.72;5033704;28;20052;-63
2021/08/14 03:26:31;;;;;;;15.93;8.48;;;;;;;20.09;99.19;97231.50;5032041;28;20060;-65
2021/08/14 03:28:56;;;;;;;14.00;7.57;;;;;;;20.17;99.07;97232.97;5040354;28;20041;-65
2021/08/14 03:31:21;;;;;;;12.73;7.82;;;;;;;20.22;98.31;97234.50;5022545;28;20686;-64
2021/08/14 03:33:48;;;;;;;14.95;7.88;;;;;;;20.27;98.24;97227.69;5037578;28;20068;-67
2021/08/14 03:36:14;;;;;;;14.85;7.50;;;;;;;20.28;97.54;97237.63;5021580;28;20057;-66
2021/08/14 03:38:40;;;;;;;13.57;7.53;;;;;;;20.30;96.90;97235.97;5039675;28;20041;-66
2021/08/14 03:41:07;;;;;;;15.45;8.10;;;;;;;20.29;97.12;97226.06;5032783;28;20096;-66
2021/08/14 03:43:33;;;;;;;18.80;7.78;;;;;;;20.16;97.13;97231.41;5031506;28;20041;-65
2021/08/14 03:45:58;;;;;;;14.02;7.88;;;;;;;19.88;99.23;97240.09;5029893;28;20043;-67
2021/08/14 03:48:24;;;;;;;14.95;7.78;;;;;;;19.89;99.24;97227.78;5022519;28;20056;-65
2021/08/14 03:50:49;;;;;;;16.33;8.45;;;;;;;19.95;99.31;97237.22;5037175;28;20068;-66
2021/08/14 03:53:15;;;;;;;19.10;8.48;;;;;;;20.00;99.02;97223.66;5023689;28;20506;-65
2021/08/14 03:55:42;;;;;;;15.23;7.60;;;;;;;20.06;98.65;97237.91;5033069;28;20044;-65
2021/08/14 03:58:07;;;;;;;20.13;8.57;;;;;;;19.91;98.82;97233.72;5024805;28;20053;-65
2021/08/14 04:00:33;;;;;;;13.25;8.27;;;;;;;19.76;99.64;97233.88;5036941;28;20159;-66
2021/08/14 04:03:00;;;;;;;17.27;8.32;;;;;;;19.51;100.00;97234.13;5036328;28;20591;-65
2021/08/14 04:05:26;;;;;;;18.13;8.82;;;;;;;19.14;100.00;97232.09;5033743;28;20560;-67
2021/08/14 04:07:51;;;;;;;14.57;9.10;;;;;;;18.99;100.00;97237.00;5039408;28;20051;-67
2021/08/14 04:10:17;;;;;;;17.15;8.32;;;;;;;19.09;100.00;97236.91;5024338;28;20049;-66
2021/08/14 04:12:42;;;;;;;17.95;8.15;;;;;;;19.21;100.00;97234.81;5027753;28;20032;-67
2021/08/14 04:15:08;;;;;;;15.30;8.55;;;;;;;19.28;100.00;97237.53;5032313;28;20053;-68
2021/08/14 04:17:34;;;;;;;15.82;8.48;;;;;;;19.29;100.00;97241.88;5029119;28;20053;-65
2021/08/14 04:20:00;;;;;;;14.38;7.95;;;;;;;19.39;100.00;97249.34;5038022;28;20094;-68
2021/08/14 04:22:26;;;;;;;14.80;8.55;;;;;;;19.48;100.00;97249.63;5034173;28;20045;-65
2021/08/14 04:24:52;;;;;;;17.20;7.70;;;;;;;19.64;100.00;97240.75;5036098;28;20041;-66
2021/08/14 04:27:17;;;;;;;15.68;8.00;;;;;;;19.75;100.00;97248.97;5030989;28;20038;-67
2021/08/14 04:29:42;;;;;;;16.85;8.07;;;;;;;19.83;100.00;97253.25;5030369;28;20041;-66
2021/08/14 04:32:08;;;;;;;11.48;7.63;;;;;;;19.94;99.24;97247.56;5034020;28;20083;-66
2021/08/14 04:34:33;;;;;;;15.55;8.32;;;;;;;20.06;98.34;97254.59;5039433;28;20036;-66
2021/08/14 04:36:59;;;;;;;15.23;8.35;;;;;;;19.95;97.52;97254.72;5022468;28;20885;-66
2021/08/14 04:39:24;;;;;;;15.93;8.50;;;;;;;19.74;98.77;97258.53;5030187;28;20045;-65
2021/08/14 04:41:50;;;;;;;18.52;7.50;;;;;;;19.80;98.99;97258.84;5029694;28;20655;-65
2021/08/14 04:44:15;;;;;;;16.73;8.07;;;;;;;19.60;99.74;97255.88;5032572;28;20045;-65
2021/08/14 04:46:41;;;;;;;21.30;8.88;;;;;;;19.52;100.00;97246.81;5039001;28;20127;-65
2021/08/14 04:49:06;;;;;;;15.73;8.23;;;;;;;19.53;100.00;97247.59;5032963;28;20037;-65
2021/08/14 04:51:32;;;;;;;19.75;8.55;;;;;;;19.55;100.00;97248.75;5035977;28;20068;-65
2021/08/14 04:53:58;;;;;;;12.38;7.15;;;;;;;19.70;100.00;97248.59;5030409;28;20124;-65
2021/08/14 04:56:24;;;;;;;11.85;7.55;;;;;;;19.92;100.00;97249.97;5022500;28;20088;-65
2021/08/14 04:58:50;;;;;;;14.10;7.30;;;;;;;20.15;98.64;97252.09;5038943;28;20493;-67
2021/08/14 05:01:15;;;;;;;18.02;7.45;;;;;;;20.29;96.92;97248.31;5021824;28;20049;-67
2021/08/14 05:03:40;;;;;;;17.08;8.35;;;;;;;20.41;95.56;97252.53;5026995;28;20086;-66
2021/08/14 05:06:07;;;;;;;17.95;7.93;;;;;;;20.60;94.80;97256.66;5033420;28;20040;-67
2021/08/14 05:08:34;;;;;;;14.65;7.47;;;;;;;20.83;93.60;97250.34;5030250;28;20119;-67
2021/08/14 05:10:59;;;;;;;14.63;6.82;;;;;;;21.10;91.44;97253.09;5038045;28;20041;-66
2021/08/14 05:13:24;;;;;;;18.48;7.75;;;;;;;21.35;89.94;97258.22;5024692;28;20056;-67
2021/08/14 05:15:50;;;;;;;12.98;7.35;;;;;;;21.73;86.95;97260.78;5037144;28;20069;-66
2021/08/14 05:18:16;;;;;;;14.23;7.28;;;;;;;22.33;83.47;97263.56;5032740;28;20044;-66
2021/08/14 05:20:42;;;;;;;22.15;7.47;;;;;;;22.77;81.50;97265.41;5038652;28;20136;-66
2021/08/14 05:23:07;;;;;;;14.38;6.63;;;;;;;23.43;77.16;97271.81;5023567;28;20048;-65
2021/08/14 05:25:33;;;;;;;10.55;6.25;;;;;;;23.52;76.83;97269.19;5039113;28;20546;-66
2021/08/14 05:27:58;;;;;;;15.52;6.78;;;;;;;23.77;76.43;97264.91;5035888;28;20405;-66
2021/08/14 05:30:24;;;;;;;14.63;7.03;;;;;;;23.39;75.90;97268.31;5034129;28;20055;-67
2021/08/14 05:32:49;;;;;;;14.07;6.43;;;;;;;24.05;74.35;97257.78;5040736;28;20529;-67
2021/08/14 05:35:14;;;;;;;12.48;7.05;;;;;;;23.97;74.83;97259.22;5026478;28;20055;-66
2021/08/14 05:37:40;;;;;;;14.25;7.28;;;;;;;24.53;71.78;97267.19;5039831;28;20047;-67
2021/08/14 05:40:06;;;;;;;10.40;7.00;;;;;;;24.08;72.77;97270.88;5037837;28;20071;-66
2021/08/14 05:42:31;;;;;;;14.50;7.22;;;;;;;24.10;73.29;97271.22;5042015;28;20681;-66
2021/08/14 05:44:57;;;;;;;10.82;6.88;;;;;;;24.08;73.38;97265.28;5041900;28;20036;-67
2021/08/14 05:47:23;;;;;;;12.63;6.80;;;;;;;24.64;70.31;97272.47;5039150;28;20967;-67
2021/08/14 05:49:49;;;;;;;9.98;5.65;;;;;;;26.20;65.91;97263.28;5040163;28;20498;-67
2021/08/14 05:52:14;;;;;;;8.80;5.88;;;;;;;27.83;58.83;97267.63;5037585;28;20098;-67
2021/08/14 05:54:39;;;;;;;9.05;5.68;;;;;;;28.87;53.80;97257.28;5035957;28;20044;-66
2021/08/14 05:57:05;;;;;;;11.07;4.65;;;;;;;30.06;50.77;97263.41;5018986;28;20102;-66
2021/08/14 05:59:30;;;;;;;10.98;5.55;;;;;;;30.99;47.51;97265.28;5045192;28;20067;-66
2021/08/14 06:01:56;;;;;;;9.85;4.80;;;;;;;31.56;46.19;97262.00;5039966;28;20047;-66
2021/08/14 06:04:21;;;;;;;14.30;5.60;;;;;;;31.29;45.51;97262.38;5025764;28;20318;-65
2021/08/14 06:06:47;;;;;;;13.48;6.03;;;;;;;31.53;45.08;97265.03;5023653;28;20047;-66
2021/08/14 06:09:12;;;;;;;10.68;4.95;;;;;;;32.03;44.09;97262.03;5034727;28;20033;-65
2021/08/14 06:11:39;;;;;;;12.25;6.10;;;;;;;28.89;52.51;97262.44;5037782;28;20071;-66
2021/08/14 06:14:05;;;;;;;11.13;5.95;;;;;;;29.88;49.46;97263.59;5036042;28;20049;-64
2021/08/14 06:16:30;;;;;;;9.25;6.63;;;;;;;26.59;58.20;97264.59;5032323;28;20048;-66
2021/08/14 06:18:56;;;;;;;11.65;6.55;;;;;;;26.80;58.46;97256.59;5034951;28;20508;-66
2021/08/14 06:21:22;;;;;;;11.65;6.90;;;;;;;27.78;56.16;97263.38;5037683;28;20044;-66
2021/08/14 06:23:47;;;;;;;13.18;6.25;;;;;;;27.58;56.75;97268.69;5024223;28;20555;-66
2021/08/14 06:26:12;;;;;;;10.20;6.35;;;;;;;27.86;54.98;97272.31;5032022;28;20045;-66
2021/08/14 06:28:38;;;;;;;11.15;6.50;;;;;;;26.73;59.00;97263.28;5039031;28;20045;-65
2021/08/14 06:31:03;;;;;;;10.50;6.60;;;;;;;26.42;59.23;97268.88;5031279;28;20527;-64
2021/08/14 06:33:29;;;;;;;14.35;6.15;;;;;;;27.40;56.83;97275.06;5044237;28;20041;-66
2021/08/14 06:35:54;;;;;;;12.13;6.55;;;;;;;27.41;58.15;97273.84;5038011;28;20048;-65
2021/08/14 06:38:20;;;;;;;15.70;7.18;;;;;;;28.58;53.33;97275.53;5025409;28;20071;-65
2021/08/14 06:40:45;;;;;;;11.55;5.88;;;;;;;30.72;47.21;97270.00;5022129;28;20041;-65
2021/08/14 06:43:11;;;;;;;16.13;6.15;;;;;;;31.89;43.60;97275.03;5034476;28;20049;-64
2021/08/14 06:45:36;;;;;;;10.82;6.07;;;;;;;30.91;45.70;97272.59;5033045;28;20057;-64
2021/08/14 06:48:02;;;;;;;10.27;5.78;;;;;;;31.53;44.87;97279.19;5030368;28;20575;-66
2021/08/14 06:50:27;;;;;;;10.38;5.18;;;;;;;33.32;41.28;97279.44;5037152;28;20049;-67
2021/08/14 06:52:53;;;;;;;15.68;6.30;;;;;;;32.16;42.33;97275.84;5021772;28;20072;-66
2021/08/14 06:55:19;;;;;;;13.52;6.22;;;;;;;28.95;51.11;97275.38;5028582;28;20069;-65
2021/08/14 06:57:45;;;;;;;13.27;6.82;;;;;;;27.04;57.62;97277.28;5039668;28;20050;-65
2021/08/14 07:00:11;;;;;;;12.77;5.72;;;;;;;29.84;49.05;97272.25;5031637;28;20406;-65
2021/08/14 07:02:36;;;;;;;14.43;6.53;;;;;;;29.05;50.70;97281.00;5040472;28;20648;-65
2021/08/14 07:05:04;;;;;;;14.95;6.53;;;;;;;28.72;51.73;97271.28;5038660;28;20056;-64
2021/08/14 07:07:29;;;;;;;10.88;6.43;;;;;;;28.03;54.38;97279.19;5040582;28;20045;-65
2021/08/14 07:09:54;;;;;;;12.02;5.68;;;;;;;30.24;49.65;97265.28;5039006;28;20120;-66
2021/08/14 07:12:20;;;;;;;15.23;5.97;;;;;;;30.01;49.11;97275.38;5034060;28;20151;-66
2021/08/14 07:14:45;;;;;;;14.63;5.55;;;;;;;32.00;43.52;97274.38;5038521;28;20045;-66
2021/08/14 07:17:11;;;;;;;14.93;6.18;;;;;;;30.36;47.30;97268.34;5032626;28;20121;-64
2021/08/14 07:19:36;;;;;;;11.27;5.70;;;;;;;31.90;44.02;97268.06;5040132;28;20052;-67
2021/08/14 07:22:02;;;;;;;14.05;5.75;;;;;;;32.57;41.61;97262.34;5038596;28;20498;-67
2021/08/14 07:24:27;;;;;;;14.52;6.05;;;;;;;29.82;47.75;97263.47;5034904;28;20040;-68
2021/08/14 07:26:53;;;;;;;12.82;6.47;;;;;;;28.70;51.00;97268.16;5031508;28;20041;-66
2021/08/14 07:29:18;;;;;;;14.73;5.75;;;;;;;32.09;43.65;97256.44;5030733;28;20143;-67
2021/08/14 07:31:44;;;;;;;10.93;5.65;;;;;;;33.48;39.75;97257.31;5030641;28;20045;-67
2021/08/14 07:34:09;;;;;;;16.52;6.75;;;;;;;34.50;38.32;97252.72;5030042;28;20048;-69
2021/08/14 07:36:34;;;;;;;15.57;6.30;;;;;;;30.49;46.16;97258.31;5035001;28;20045;-68
2021/08/14 07:39:00;;;;;;;15.15;6.15;;;;;;;29.00;51.00;97253.47;5034178;28;20383;-67
2021/08/14 07:41:25;;;;;;;15.98;6.60;;;;;;;28.64;52.29;97258.78;5034274;28;20048;-66
2021/08/14 07:43:51;;;;;;;17.80;7.25;;;;;;;28.70;51.72;97258.91;5037906;28;20045;-66
2021/08/14 07:46:16;;;;;;;13.40;6.05;;;;;;;29.60;50.06;97246.06;5031589;28;20070;-68
2021/08/14 07:48:42;;;;;;;12.50;5.80;;;;;;;29.25;50.88;97253.03;5030233;28;20072;-67
2021/08/14 07:51:07;;;;;;;14.25;6.30;;;;;;;31.60;44.75;97245.59;5034284;28;20141;-67
2021/08/14 07:53:32;;;;;;;15.32;5.97;;;;;;;30.63;47.38;97242.63;5038682;28;20041;-67
2021/08/14 07:55:59;;;;;;;14.50;5.85;;;;;;;31.87;44.76;97240.72;5030880;28;20095;-67
2021/08/14 07:58:25;;;;;;;9.82;5.10;;;;;;;33.59;40.21;97239.56;5020886;28;20127;-67
2021/08/14 08:00:50;;;;;;;14.45;5.55;;;;;;;33.88;39.20;97235.56;5035403;28;20037;-67
2021/08/14 08:03:16;;;;;;;13.32;5.20;;;;;;;34.50;38.57;97232.81;5030549;28;20037;-67
2021/08/14 08:05:42;;;;;;;12.65;4.85;;;;;;;32.34;41.52;97235.06;5036103;28;20033;-67
2021/08/14 08:08:07;;;;;;;13.85;5.03;;;;;;;30.86;45.65;97232.44;5031341;28;20041;-69
2021/08/14 08:10:35;;;;;;;12.85;5.70;;;;;;;30.33;46.23;97230.53;5037401;28;20087;-67
2021/08/14 08:13:00;;;;;;;13.68;5.15;;;;;;;30.60;46.94;97228.69;5035055;28;20037;-67
2021/08/14 08:15:26;;;;;;;15.43;5.32;;;;;;;31.59;44.27;97231.94;5033096;28;20393;-68
2021/08/14 08:17:52;;;;;;;14.90;5.47;;;;;;;29.79;48.15;97224.91;5039521;28;20040;-67
2021/08/14 08:20:20;;;;;;;17.60;5.22;;;;;;;30.52;47.24;97219.81;5030464;28;20371;-68
2021/08/14 08:22:45;;;;;;;12.07;5.03;;;;;;;31.44;44.82;97223.50;5037675;28;20457;-68
2021/08/14 08:25:13;;;;;;;16.25;5.85;;;;;;;31.38;45.06;97220.56;5031311;28;20170;-68
2021/08/14 08:27:44;;;;;;;12.52;4.68;;;;;;;32.82;41.41;97211.75;5029657;28;20065;-68
2021/08/14 08:30:10;;;;;;;11.43;5.13;;;;;;;32.21;42.29;97221.28;5030962;28;20045;-67
2021/08/14 08:32:37;;;;;;;16.02;4.88;;;;;;;31.60;44.79;97220.13;5038328;28;20425;-66
2021/08/14 08:35:03;;;;;;;20.90;4.95;;;;;;;31.71;44.35;97210.97;5036131;28;20044;-70
2021/08/14 08:37:29;;;;;;;15.45;4.85;;;;;;;29.67;47.82;97218.22;5033378;28;20043;-67
2021/08/14 08:39:55;;;;;;;19.60;5.78;;;;;;;31.61;43.42;97209.56;5030726;28;20046;-67
2021/08/14 08:42:20;;;;;;;14.40;5.65;;;;;;;32.04;42.88;97209.81;5031002;28;20074;-68
2021/08/14 08:44:46;;;;;;;14.27;4.68;;;;;;;32.05;42.52;97211.34;5016700;28;20038;-68
2021/08/14 08:47:13;;;;;;;13.20;5.68;;;;;;;30.60;45.29;97203.25;5032956;28;20040;-67
2021/08/14 08:49:53;;;;;;;17.15;5.38;;;;;;;31.38;44.27;97202.81;5037098;28;20124;-67
2021/08/14 08:52:20;;;;;;;14.18;5.07;;;;;;;30.02;47.42;97203.53;5029126;28;20342;-66
2021/08/14 08:54:50;;;;;;;14.52;5.07;;;;;;;32.82;41.32;97208.91;5036429;28;20079;-67
2021/08/14 08:57:15;;;;;;;12.40;5.80;;;;;;;33.95;39.27;97197.34;5029723;28;20084;-66
2021/08/14 08:59:43;;;;;;;13.48;5.10;;;;;;;32.27;42.21;97201.50;5037168;28;20698;-67
2021/08/14 09:02:27;;;;;;;11.25;4.45;;;;;;;32.71;43.16;97200.34;5031724;28;20041;-67
2021/08/14 09:05:19;;;;;;;13.63;4.75;;;;;;;33.42;41.75;97194.84;5020578;28;20049;-67
2021/08/14 09:07:47;;;;;;;15.07;5.15;;;;;;;33.66;41.21;97193.66;5038720;28;20049;-67
2021/08/14 09:10:15;;;;;;;16.88;4.70;;;;;;;33.32;41.21;97196.34;5036369;28;20044;-68
2021/08/14 09:12:43;;;;;;;11.98;4.47;;;;;;;34.02;40.65;97189.09;5042085;28;20492;-67
2021/08/14 09:15:29;;;;;;;12.90;5.75;;;;;;;33.28;42.39;97193.75;5035334;28;20052;-67
2021/08/14 09:18:06;;;;;;;16.67;4.82;;;;;;;32.98;42.45;97207.47;5034485;28;20414;-67
2021/08/14 09:20:43;;;;;;;13.65;4.43;;;;;;;32.87;42.79;97194.00;5032803;28;20107;-67
2021/08/14 09:23:16;;;;;;;10.65;4.78;;;;;;;33.02;42.35;97193.81;5034083;28;20051;-68
2021/08/14 09:25:43;;;;;;;11.18;4.70;;;;;;;32.65;43.45;97197.47;5034666;28;20076;-68
2021/08/14 09:28:10;;;;;;;12.65;4.72;;;;;;;33.25;41.41;97191.16;5030228;28;20033;-68
2021/08/14 09:30:53;;;;;;;14.80;4.75;;;;;;;34.24;39.77;97191.22;5041976;28;20053;-68
2021/08/14 09:33:20;;;;;;;18.20;6.72;;;;;;;33.44;41.43;97180.91;5030320;28;20041;-66
2021/08/14 09:35:46;;;;;;;17.40;5.03;;;;;;;34.02;39.69;97189.09;5030334;28;20037;-67
2021/08/14 09:38:14;;;;;;;13.52;4.20;;;;;;;33.80;40.10;97177.69;5036120;28;20033;-67
2021/08/14 09:40:45;;;;;;;14.98;4.40;;;;;;;33.79;40.32;97176.13;5039791;28;20111;-67
2021/08/14 09:43:12;;;;;;;9.27;4.80;;;;;;;34.04;39.97;97169.47;5035448;28;20106;-68
2021/08/14 09:45:38;;;;;;;15.52;5.07;;;;;;;34.13;39.93;97162.00;5040058;28;20037;-68
2021/08/14 09:48:18;;;;;;;12.60;4.90;;;;;;;33.56;41.19;97164.69;5035981;28;20037;-70
2021/08/14 09:50:44;;;;;;;18.48;5.28;;;;;;;34.30;39.54;97159.16;5038096;28;20234;-67
2021/08/14 09:53:11;;;;;;;10.02;5.28;;;;;;;34.15;40.47;97148.03;5033585;28;20049;-68
2021/08/14 09:55:38;;;;;;;9.27;4.35;;;;;;;34.50;40.27;97150.34;5039388;28;20049;-68
2021/08/14 09:58:05;;;;;;;15.45;5.82;;;;;;;34.22;40.22;97147.56;5027943;28;20065;-70
2021/08/14 10:00:31;;;;;;;10.65;4.93;;;;;;;34.91;38.76;97137.66;5028674;28;20120;-68
2021/08/14 10:02:58;;;;;;;14.57;5.22;;;;;;;34.47;39.63;97142.88;5039688;28;20041;-67
2021/08/14 10:05:24;;;;;;;18.38;5.57;;;;;;;33.35;41.73;97135.72;5033008;28;20492;-68
2021/08/14 10:07:50;;;;;;;13.88;5.32;;;;;;;33.34;42.53;97125.66;5037890;28;20037;-67
2021/08/14 10:10:15;;;;;;;14.35;5.13;;;;;;;34.00;41.08;97134.09;5032643;28;20188;-67
2021/08/14 10:12:41;;;;;;;13.50;5.07;;;;;;;33.98;40.91;97119.59;5039300;28;20033;-67
2021/08/14 10:15:07;;;;;;;18.65;5.60;;;;;;;33.31;42.33;97124.63;5031208;28;20037;-66
2021/08/14 10:17:34;;;;;;;17.35;5.63;;;;;;;33.57;42.06;97123.66;5040159;28;20497;-67
2021/08/14 10:20:00;;;;;;;12.98;5.53;;;;;;;33.38;41.83;97114.81;5038915;28;20044;-66
2021/08/14 10:22:25;;;;;;;12.88;6.03;;;;;;;33.68;41.43;97118.00;5032497;28;20099;-67
2021/08/14 10:24:51;;;;;;;15.70;6.00;;;;;;;33.68;41.03;97115.16;5033670;28;20128;-67
2021/08/14 10:27:19;;;;;;;14.40;5.38;;;;;;;32.76;42.85;97120.19;5029204;28;20041;-67
2021/08/14 10:29:50;;;;;;;14.80;6.22;;;;;;;33.31;42.18;97110.41;5035883;28;20087;-67
2021/08/14 10:32:31;;;;;;;12.05;4.80;;;;;;;33.46;42.07;97103.75;5030581;28;20075;-67
2021/08/14 10:35:11;;;;;;;15.98;4.78;;;;;;;33.75;41.17;97113.13;5042400;28;20029;-67
2021/08/14 10:37:38;;;;;;;13.50;4.75;;;;;;;34.29;39.93;97110.06;5041686;28;20073;-67
2021/08/14 10:40:04;;;;;;;14.68;4.97;;;;;;;33.87;40.51;97103.31;5035151;28;20478;-68
2021/08/14 10:42:49;;;;;;;12.38;4.63;;;;;;;33.65;42.01;97104.03;5041604;28;20037;-67
2021/08/14 10:45:19;;;;;;;15.48;5.35;;;;;;;33.70;41.70;97091.94;5035915;28;20108;-67
2021/08/14 10:47:47;;;;;;;14.30;5.45;;;;;;;33.13;42.48;97093.81;5033306;28;20188;-72
2021/08/14 10:50:31;;;;;;;14.45;4.85;;;;;;;32.56;43.74;97095.56;5034708;28;20434;-67
2021/08/14 10:53:20;;;;;;;18.52;6.18;;;;;;;32.16;44.51;97081.13;5039217;28;20070;-67
2021/08/14 10:55:50;;;;;;;14.07;5.32;;;;;;;32.28;44.48;97093.31;5030733;28;20041;-67
2021/08/14 10:58:16;;;;;;;13.38;4.68;;;;;;;32.31;44.73;97091.53;5010976;28;20127;-68
2021/08/14 11:00:41;;;;;;;10.77;4.82;;;;;;;31.90;44.71;97094.53;5031496;28;20576;-68
2021/08/14 11:03:09;;;;;;;13.55;5.63;;;;;;;31.26;47.74;97088.72;5024385;28;20084;-68
2021/08/14 11:05:36;;;;;;;13.32;4.97;;;;;;;31.71;46.45;97071.44;5040025;28;20135;-67
2021/08/14 11:08:02;;;;;;;19.50;5.63;;;;;;;31.77;46.54;97073.06;5040116;28;20048;-68
2021/08/14 11:10:31;;;;;;;14.15;5.00;;;;;;;31.71;46.12;97069.41;5038679;28;20033;-69
2021/08/14 11:12:56;;;;;;;17.98;5.35;;;;;;;31.92;46.17;97063.66;5038775;28;20044;-67
2021/08/14 11:15:38;;;;;;;17.08;5.60;;;;;;;32.13;45.92;97067.19;5031682;28;20489;-67
2021/08/14 11:18:04;;;;;;;10.10;4.55;;;;;;;32.23;46.26;97054.38;5036609;28;20091;-68
2021/08/14 11:20:33;;;;;;;11.07;5.32;;;;;;;31.93;46.10;97062.38;5038451;28;20044;-69
2021/08/14 11:23:00;;;;;;;17.20;5.47;;;;;;;31.95;45.82;97057.75;5037876;28;20045;-66